Список аэропортов
Фактическая погода:

15 августа, 23:30
Температура: +18°C (+18.0*)
Ветер: южный 3 м/с
Давление: *760 мм
Без существ. явл.
Время (МСК)Темп. СВетерВлажностьДавлениеОблачностьОсадки
21:00+19ЮВ, 2 м/с52%1015 гПаясно
22:00+19ЮВ, 2 м/с56%1015 гПаясно
23:00+18ЮВ, 3 м/с63%1015 гПаясно
16 августа
00:00+17ЮВ, 3 м/с69%1015 гПаясно
01:00+18ЮВ, 3 м/с71%1014 гПас прояснениями
02:00+18ЮВ, 4 м/с68%1014 гПаоблачно
03:00+19ЮВ, 4 м/с67%1013 гПаоблачно
04:00+18ЮВ, 4 м/с74%1013 гПаоблачнодождь
05:00+18ЮВ, 4 м/с80%1012 гПаоблачнодождь
06:00+18ЮВ, 4 м/с76%1011 гПаоблачносл. дождь
07:00+19Ю, 4 м/с71%1011 гПаоблачнодождь
08:00+20Ю, 4 м/с73%1011 гПас прояснениямидождь
09:00+21Ю, 4 м/с81%1011 гПаоблачнодождь
10:00+23Ю, 4 м/с70%1011 гПас прояснениямисл. дождь
11:00+27Ю, 5 м/с51%1011 гПамалооблачно
12:00+27ЮЗ, 6 м/с48%1010 гПаоблачнодождь
13:00+26ЮЗ, 5 м/с52%1011 гПаоблачнодождь
14:00+26ЮЗ, 4 м/с55%1011 гПаоблачнодождь
15:00+26ЮЗ, 4 м/с54%1011 гПаоблачнодождь
16:00+26ЮЗ, 4 м/с47%1011 гПаоблачносл. дождь
17:00+23СЗ, 4 м/с71%1012 гПаоблачнодождь
18:00+22З, 3 м/с69%1012 гПаоблачно
19:00+22СЗ, 3 м/с68%1012 гПаоблачно
20:00+21СЗ, 4 м/с72%1013 гПаоблачно
21:00+19СЗ, 4 м/с73%1013 гПаоблачно
22:00+18СЗ, 3 м/с69%1014 гПаоблачно
23:00+18С, 3 м/с69%1015 гПаоблачно
17 августа
00:00+16С, 2 м/с73%1015 гПаоблачно
01:00+16СЗ, 2 м/с79%1016 гПаоблачно
02:00+15СЗ, 2 м/с86%1016 гПаоблачно
03:00+15СЗ, 2 м/с92%1017 гПаоблачно
04:00+14СЗ, 2 м/с92%1017 гПас прояснениями
05:00+13СЗ, 2 м/с92%1018 гПамалооблачно
06:00+14СЗ, 2 м/с86%1018 гПаясно
07:00+16СЗ, 2 м/с70%1018 гПаясно
08:00+19СЗ, 3 м/с52%1019 гПаясно
09:00+21СЗ, 4 м/с46%1019 гПаясно
10:00+22СЗ, 5 м/с40%1019 гПаясно
11:00+23СЗ, 5 м/с38%1019 гПамалооблачно
12:00+23СЗ, 5 м/с38%1019 гПаоблачно
13:00+23СЗ, 5 м/с38%1019 гПаоблачно
14:00+23СЗ, 5 м/с36%1019 гПаоблачно
15:00+23СЗ, 5 м/с35%1019 гПаоблачно
16:00+23СЗ, 5 м/с34%1019 гПас прояснениями
17:00+23СЗ, 5 м/с34%1019 гПамалооблачно
18:00+22СЗ, 4 м/с35%1020 гПаясно
19:00+20С, 3 м/с39%1020 гПамалооблачно
20:00+19С, 3 м/с43%1020 гПаоблачно
21:00+18С, 3 м/с46%1021 гПаясно